createdAt,value
2022-10-12T00:05:10.460Z,1.00
2022-10-12T00:10:42.321Z,2.00
2022-10-12T00:16:13.972Z,2.00
2022-10-12T00:21:45.854Z,2.00
2022-10-12T00:27:17.608Z,1.00
2022-10-12T00:32:49.302Z,2.00
2022-10-12T00:38:21.648Z,1.00
2022-10-12T00:43:57.967Z,1.00
2022-10-12T00:49:25.115Z,1.00
2022-10-12T00:54:57.345Z,1.00
2022-10-12T01:00:29.177Z,2.00
2022-10-12T01:06:02.243Z,1.00
2022-10-12T01:11:33.767Z,1.00
2022-10-12T01:17:05.539Z,1.00
2022-10-12T01:22:37.424Z,2.00
2022-10-12T01:28:09.296Z,2.00
2022-10-12T01:33:40.995Z,1.00
2022-10-12T01:39:12.831Z,1.00
2022-10-12T01:44:44.912Z,2.00
2022-10-12T01:50:16.755Z,1.00
2022-10-12T01:55:48.642Z,2.00
2022-10-12T02:01:20.598Z,2.00
2022-10-12T02:06:52.805Z,2.00
2022-10-12T02:12:25.009Z,2.00
2022-10-12T02:17:57.267Z,2.00
2022-10-12T02:28:59.004Z,1.00
2022-10-12T02:34:31.052Z,2.00
2022-10-12T02:40:02.868Z,2.00
2022-10-12T02:45:34.799Z,3.00
2022-10-12T02:51:06.742Z,2.00
2022-10-12T02:56:38.673Z,2.00
2022-10-12T03:02:10.592Z,2.00
2022-10-12T03:07:42.634Z,2.00
2022-10-12T03:13:14.525Z,2.00
2022-10-12T03:18:46.761Z,2.00
2022-10-12T03:24:18.714Z,2.00
2022-10-12T03:29:50.765Z,1.00
2022-10-12T03:35:22.523Z,2.00
2022-10-12T03:40:54.405Z,2.00
2022-10-12T03:46:26.863Z,2.00
2022-10-12T03:57:31.485Z,2.00
2022-10-12T04:03:03.434Z,3.00
2022-10-12T04:08:35.540Z,3.00
2022-10-12T04:14:07.408Z,2.00
2022-10-12T04:19:39.122Z,2.00
2022-10-12T04:25:10.936Z,2.00
2022-10-12T04:30:43.036Z,3.00
2022-10-12T04:36:15.057Z,2.00
2022-10-12T04:41:46.885Z,3.00
2022-10-12T04:47:18.602Z,1.00
2022-10-12T04:52:50.685Z,3.00
2022-10-12T04:58:22.996Z,3.00
2022-10-12T05:03:55.286Z,5.00
2022-10-12T05:09:27.113Z,12.00
2022-10-12T05:14:59.328Z,31.00
2022-10-12T05:20:31.376Z,87.00
2022-10-12T05:26:03.141Z,147.00
2022-10-12T05:31:34.773Z,240.00
2022-10-12T05:37:06.685Z,298.00
2022-10-12T05:42:38.570Z,457.00
2022-10-12T05:48:10.095Z,565.00
2022-10-12T05:59:11.097Z,1848.00
2022-10-12T06:04:43.012Z,2801.00
2022-10-12T06:10:14.755Z,2899.00
2022-10-12T06:15:46.581Z,2547.00
2022-10-12T06:21:33.165Z,3103.00
2022-10-12T06:26:50.584Z,4367.00
2022-10-12T06:32:22.804Z,5104.00
2022-10-12T06:37:54.605Z,5525.00
2022-10-12T06:43:26.551Z,6104.00
2022-10-12T06:48:58.524Z,6365.00
2022-10-12T06:54:30.772Z,6265.00
2022-10-12T07:00:03.133Z,6069.00
2022-10-12T07:05:35.278Z,8110.00
2022-10-12T07:07:47.731Z,8719.00
2022-10-12T07:13:19.761Z,7117.00
2022-10-12T07:18:51.677Z,5802.00
2022-10-12T07:24:23.690Z,5814.00
2022-10-12T07:29:55.621Z,10105.00
2022-10-12T07:35:27.661Z,10129.00
2022-10-12T07:40:59.968Z,8595.00
2022-10-12T07:46:31.756Z,10302.00
2022-10-12T07:52:03.575Z,8205.00
2022-10-12T07:57:35.341Z,10308.00
2022-10-12T08:03:07.247Z,12199.00
2022-10-12T08:08:39.262Z,11947.00
2022-10-12T08:14:10.980Z,12573.00
2022-10-12T08:19:43.253Z,15261.00
2022-10-12T08:25:15.713Z,18417.00
2022-10-12T08:30:47.477Z,20271.00
2022-10-12T08:36:19.192Z,24261.00
2022-10-12T08:41:51.120Z,23055.00
2022-10-12T08:47:23.066Z,17379.00
2022-10-12T08:52:54.708Z,11988.00
2022-10-12T09:00:46.457Z,6863.00
2022-10-12T09:06:18.093Z,5944.00
2022-10-12T09:11:49.841Z,6441.00
2022-10-12T09:17:21.277Z,11185.00
2022-10-12T09:22:53.719Z,10687.00
2022-10-12T09:28:25.764Z,10522.00
2022-10-12T09:33:57.755Z,11268.00
2022-10-12T09:39:29.653Z,10899.00
2022-10-12T09:45:01.393Z,12188.00
2022-10-12T09:50:33.522Z,11583.00
2022-10-12T09:56:05.741Z,12864.00
2022-10-12T10:01:38.058Z,13472.00
2022-10-12T10:07:10.353Z,14347.00
2022-10-12T10:12:42.302Z,15212.00
2022-10-12T10:18:14.334Z,22535.00
2022-10-12T10:23:46.513Z,23484.00
2022-10-12T10:40:20.046Z,16574.00
2022-10-12T10:45:51.880Z,15844.00
2022-10-12T10:51:23.550Z,15588.00
2022-10-12T10:56:55.505Z,16041.00
2022-10-12T11:02:27.200Z,17272.00
2022-10-12T11:07:59.211Z,17824.00
2022-10-12T11:13:30.936Z,17386.00
2022-10-12T11:19:02.859Z,17018.00
2022-10-12T11:24:34.961Z,18334.00
2022-10-12T11:30:10.088Z,19804.00
2022-10-12T11:35:38.541Z,21626.00
2022-10-12T11:46:42.126Z,22987.00
2022-10-12T11:52:14.019Z,23291.00
2022-10-12T12:03:15.076Z,23508.00
2022-10-12T12:08:46.559Z,22445.00
2022-10-12T12:14:18.269Z,20711.00
2022-10-12T12:19:50.065Z,22591.00
2022-10-12T12:25:21.826Z,22247.00
2022-10-12T12:36:32.811Z,17794.00
2022-10-12T12:47:46.600Z,15182.00
2022-10-12T12:53:10.195Z,14342.00
2022-10-12T13:04:16.989Z,15130.00
2022-10-12T13:09:48.869Z,16742.00
2022-10-12T13:15:20.758Z,17883.00
2022-10-12T13:20:52.951Z,19630.00
2022-10-12T13:28:45.421Z,24171.00
2022-10-12T13:34:17.095Z,22686.00
2022-10-12T13:39:48.891Z,22118.00
2022-10-12T13:45:20.875Z,22220.00
2022-10-12T13:50:52.410Z,22147.00
2022-10-12T13:56:24.411Z,21391.00
2022-10-12T14:01:56.277Z,21941.00
2022-10-12T14:07:28.093Z,19727.00
2022-10-12T14:18:29.908Z,18210.00
2022-10-12T14:24:01.583Z,16923.00
2022-10-12T14:29:34.261Z,16186.00
2022-10-12T14:35:06.413Z,16198.00
2022-10-12T14:40:37.841Z,15335.00
2022-10-12T14:46:09.552Z,14818.00
2022-10-12T14:51:40.891Z,14155.00
2022-10-12T14:57:13.392Z,13216.00
2022-10-12T15:02:44.712Z,11877.00
2022-10-12T15:08:16.470Z,11043.00
2022-10-12T15:13:48.267Z,9934.00
2022-10-12T15:19:19.883Z,8494.00
2022-10-12T15:24:51.581Z,7138.00
2022-10-12T15:30:23.652Z,6092.00
2022-10-12T15:35:55.255Z,4922.00
2022-10-12T15:41:26.877Z,3971.00
2022-10-12T15:46:58.684Z,3406.00
2022-10-12T15:52:30.495Z,3000.00
2022-10-12T15:58:02.490Z,2424.00
2022-10-12T16:03:33.934Z,1958.00
2022-10-12T16:09:05.924Z,1573.00
2022-10-12T16:14:37.674Z,1272.00
2022-10-12T16:20:09.473Z,971.00
2022-10-12T16:25:41.077Z,725.00
2022-10-12T16:31:13.001Z,471.00
2022-10-12T16:36:44.638Z,272.00
2022-10-12T16:42:17.001Z,147.00
2022-10-12T16:47:48.498Z,73.00
2022-10-12T16:53:20.226Z,29.00
2022-10-12T17:09:56.244Z,2.00
2022-10-12T17:15:28.038Z,1.00
2022-10-12T17:20:59.612Z,1.00
2022-10-12T17:37:35.146Z,1.00
2022-10-12T17:43:06.855Z,2.00
2022-10-12T17:48:38.742Z,2.00
2022-10-12T17:54:10.644Z,2.00
2022-10-12T17:59:42.353Z,3.00
2022-10-12T18:05:14.321Z,10.00
2022-10-12T18:10:45.729Z,10.00
2022-10-12T18:16:17.604Z,11.00
2022-10-12T18:21:49.569Z,10.00
2022-10-12T18:27:22.915Z,10.00
2022-10-12T18:32:54.693Z,4.00
2022-10-12T18:38:26.662Z,4.00
2022-10-12T18:43:58.856Z,4.00
2022-10-12T18:49:30.596Z,3.00
2022-10-12T18:57:26.579Z,4.00
2022-10-12T19:02:56.081Z,3.00
2022-10-12T19:08:28.288Z,2.00
2022-10-12T19:13:59.960Z,4.00
2022-10-12T19:19:31.883Z,4.00
2022-10-12T19:25:03.756Z,3.00
2022-10-12T19:30:35.903Z,2.00
2022-10-12T19:36:08.367Z,3.00
2022-10-12T19:41:40.447Z,2.00
2022-10-12T19:52:42.217Z,4.00
2022-10-12T19:58:14.043Z,4.00
2022-10-12T20:03:47.916Z,2.00
2022-10-12T20:09:17.705Z,2.00
2022-10-12T20:14:49.533Z,2.00
2022-10-12T20:20:20.988Z,3.00
2022-10-12T20:31:22.223Z,4.00
2022-10-12T20:36:54.274Z,2.00
2022-10-12T20:42:26.226Z,4.00
2022-10-12T20:47:57.793Z,4.00
2022-10-12T20:53:30.067Z,3.00
2022-10-12T20:59:01.690Z,2.00
2022-10-12T21:04:38.132Z,2.00
2022-10-12T21:10:05.046Z,2.00
2022-10-12T21:15:37.125Z,3.00
2022-10-12T21:21:08.885Z,3.00
2022-10-12T21:32:10.306Z,3.00
2022-10-12T21:37:42.450Z,2.00
2022-10-12T21:43:20.277Z,4.00
2022-10-12T21:48:52.247Z,3.00
2022-10-12T21:54:25.779Z,2.00
2022-10-12T21:59:57.552Z,3.00
2022-10-12T22:05:29.259Z,3.00
2022-10-12T22:11:01.113Z,2.00
2022-10-12T22:16:33.200Z,3.00
2022-10-12T22:22:05.212Z,3.00
2022-10-12T22:27:37.013Z,1.00
2022-10-12T22:33:08.731Z,2.00
2022-10-12T22:38:40.564Z,2.00
2022-10-12T22:44:12.831Z,1.00
2022-10-12T22:49:44.499Z,1.00
2022-10-12T22:55:16.181Z,1.00
2022-10-12T23:00:54.190Z,3.00
2022-10-12T23:06:26.321Z,1.00
2022-10-12T23:11:58.047Z,1.00
2022-10-12T23:17:29.988Z,1.00
2022-10-12T23:23:01.937Z,1.00
2022-10-12T23:28:33.718Z,2.00
2022-10-12T23:34:05.672Z,1.00
2022-10-12T23:39:37.770Z,2.00
2022-10-12T23:45:09.917Z,2.00
2022-10-12T23:50:41.921Z,0.00
2022-10-12T23:56:20.014Z,2.00
